Terminal Aerodrome Forecast
Issued by NWS

Home | Current Version | Previous Version | Text Only | Print | Product List | Glossary On
Versions: 1 2 3 4 5 6 7 8 9 10 11 12 13 14
000
FTUS45 KPIH 292320
TAFSUN
TAF
KSUN 292320Z 3000/3024 19011KT P6SM VCSH SCT090 BKN120
     FM300500 31010KT P6SM FEW070
     FM301700 20010KT P6SM FEW060
      AMD LTD TO CLD VIS AND WIND 3006/3014=

USA.gov is the U.S. government's official web portal to all federal, state and local government web resources and services.